sensor_id;sensor_type;location;lat;lon;timestamp;P1;durP1;ratioP1;P2;durP2;ratioP2
4047;SDS011;2038;51.728;6.674;2022-08-30T00:00:58;7.80;;;4.83;;
4047;SDS011;2038;51.728;6.674;2022-08-30T00:03:28;5.50;;;3.50;;
4047;SDS011;2038;51.728;6.674;2022-08-30T00:06:03;4.47;;;3.70;;
4047;SDS011;2038;51.728;6.674;2022-08-30T00:08:33;5.40;;;4.00;;
4047;SDS011;2038;51.728;6.674;2022-08-30T00:11:01;6.30;;;4.00;;
4047;SDS011;2038;51.728;6.674;2022-08-30T00:13:30;5.07;;;3.67;;
4047;SDS011;2038;51.728;6.674;2022-08-30T00:15:57;4.10;;;3.70;;
4047;SDS011;2038;51.728;6.674;2022-08-30T00:18:23;7.30;;;4.27;;
4047;SDS011;2038;51.728;6.674;2022-08-30T00:20:49;7.23;;;3.83;;
4047;SDS011;2038;51.728;6.674;2022-08-30T00:23:17;7.50;;;4.40;;
4047;SDS011;2038;51.728;6.674;2022-08-30T00:25:44;5.70;;;3.73;;
4047;SDS011;2038;51.728;6.674;2022-08-30T00:28:11;8.10;;;4.30;;
4047;SDS011;2038;51.728;6.674;2022-08-30T00:30:38;5.07;;;4.40;;
4047;SDS011;2038;51.728;6.674;2022-08-30T00:33:06;4.23;;;3.70;;
4047;SDS011;2038;51.728;6.674;2022-08-30T00:35:34;11.20;;;4.90;;
4047;SDS011;2038;51.728;6.674;2022-08-30T00:38:02;6.70;;;4.30;;
4047;SDS011;2038;51.728;6.674;2022-08-30T00:40:28;6.10;;;4.43;;
4047;SDS011;2038;51.728;6.674;2022-08-30T00:42:56;4.27;;;3.23;;
4047;SDS011;2038;51.728;6.674;2022-08-30T00:45:29;6.07;;;4.60;;
4047;SDS011;2038;51.728;6.674;2022-08-30T00:48:01;6.20;;;4.43;;
4047;SDS011;2038;51.728;6.674;2022-08-30T00:50:37;4.30;;;3.80;;
4047;SDS011;2038;51.728;6.674;2022-08-30T00:53:23;8.63;;;5.00;;
4047;SDS011;2038;51.728;6.674;2022-08-30T00:55:55;6.53;;;4.53;;
4047;SDS011;2038;51.728;6.674;2022-08-30T00:58:30;6.93;;;4.23;;
4047;SDS011;2038;51.728;6.674;2022-08-30T01:01:01;4.63;;;4.23;;
4047;SDS011;2038;51.728;6.674;2022-08-30T01:03:30;5.80;;;4.57;;
4047;SDS011;2038;51.728;6.674;2022-08-30T01:05:58;5.67;;;5.07;;
4047;SDS011;2038;51.728;6.674;2022-08-30T01:08:27;6.20;;;5.00;;
4047;SDS011;2038;51.728;6.674;2022-08-30T01:10:53;5.43;;;4.93;;
4047;SDS011;2038;51.728;6.674;2022-08-30T01:13:21;4.53;;;4.13;;
4047;SDS011;2038;51.728;6.674;2022-08-30T01:15:51;7.40;;;4.50;;
4047;SDS011;2038;51.728;6.674;2022-08-30T01:18:19;6.73;;;5.00;;
4047;SDS011;2038;51.728;6.674;2022-08-30T01:23:56;6.23;;;4.60;;
4047;SDS011;2038;51.728;6.674;2022-08-30T01:26:26;5.40;;;4.40;;
4047;SDS011;2038;51.728;6.674;2022-08-30T01:28:55;5.20;;;4.70;;
4047;SDS011;2038;51.728;6.674;2022-08-30T01:31:28;13.37;;;5.37;;
4047;SDS011;2038;51.728;6.674;2022-08-30T01:33:54;6.00;;;5.17;;
4047;SDS011;2038;51.728;6.674;2022-08-30T01:36:20;6.07;;;4.93;;
4047;SDS011;2038;51.728;6.674;2022-08-30T01:38:49;8.10;;;5.57;;
4047;SDS011;2038;51.728;6.674;2022-08-30T01:43:48;12.23;;;5.40;;
4047;SDS011;2038;51.728;6.674;2022-08-30T01:46:17;5.40;;;4.90;;
4047;SDS011;2038;51.728;6.674;2022-08-30T01:48:48;5.90;;;4.93;;
4047;SDS011;2038;51.728;6.674;2022-08-30T01:51:17;8.10;;;4.97;;
4047;SDS011;2038;51.728;6.674;2022-08-30T01:53:45;9.57;;;5.50;;
4047;SDS011;2038;51.728;6.674;2022-08-30T01:56:12;5.40;;;4.90;;
4047;SDS011;2038;51.728;6.674;2022-08-30T01:58:39;6.33;;;5.63;;
4047;SDS011;2038;51.728;6.674;2022-08-30T02:01:08;6.60;;;5.33;;
4047;SDS011;2038;51.728;6.674;2022-08-30T02:03:39;7.87;;;5.97;;
4047;SDS011;2038;51.728;6.674;2022-08-30T02:06:10;8.40;;;6.20;;
4047;SDS011;2038;51.728;6.674;2022-08-30T02:08:39;9.43;;;6.33;;
4047;SDS011;2038;51.728;6.674;2022-08-30T02:11:08;6.70;;;5.77;;
4047;SDS011;2038;51.728;6.674;2022-08-30T02:13:35;6.27;;;5.43;;
4047;SDS011;2038;51.728;6.674;2022-08-30T02:16:05;6.63;;;5.93;;
4047;SDS011;2038;51.728;6.674;2022-08-30T02:18:33;8.97;;;6.70;;
4047;SDS011;2038;51.728;6.674;2022-08-30T02:21:01;9.83;;;7.63;;
4047;SDS011;2038;51.728;6.674;2022-08-30T02:23:28;7.30;;;6.60;;
4047;SDS011;2038;51.728;6.674;2022-08-30T02:25:55;9.40;;;6.20;;
4047;SDS011;2038;51.728;6.674;2022-08-30T02:28:21;7.90;;;6.80;;
4047;SDS011;2038;51.728;6.674;2022-08-30T02:30:49;7.20;;;6.50;;
4047;SDS011;2038;51.728;6.674;2022-08-30T02:33:16;14.60;;;7.13;;
4047;SDS011;2038;51.728;6.674;2022-08-30T02:35:43;7.03;;;6.33;;
4047;SDS011;2038;51.728;6.674;2022-08-30T02:38:09;6.80;;;6.23;;
4047;SDS011;2038;51.728;6.674;2022-08-30T02:40:36;8.37;;;6.20;;
4047;SDS011;2038;51.728;6.674;2022-08-30T02:43:02;7.93;;;6.70;;
4047;SDS011;2038;51.728;6.674;2022-08-30T02:45:29;7.57;;;6.77;;
4047;SDS011;2038;51.728;6.674;2022-08-30T02:47:55;7.53;;;6.60;;
4047;SDS011;2038;51.728;6.674;2022-08-30T02:50:22;10.60;;;7.47;;
4047;SDS011;2038;51.728;6.674;2022-08-30T02:52:49;8.10;;;7.30;;
4047;SDS011;2038;51.728;6.674;2022-08-30T02:55:16;7.97;;;7.17;;
4047;SDS011;2038;51.728;6.674;2022-08-30T02:57:43;9.33;;;6.87;;
4047;SDS011;2038;51.728;6.674;2022-08-30T03:00:11;8.60;;;6.97;;
4047;SDS011;2038;51.728;6.674;2022-08-30T03:02:41;9.00;;;8.20;;
4047;SDS011;2038;51.728;6.674;2022-08-30T03:05:09;9.40;;;6.40;;
4047;SDS011;2038;51.728;6.674;2022-08-30T03:07:37;14.13;;;7.90;;
4047;SDS011;2038;51.728;6.674;2022-08-30T03:10:05;8.73;;;7.30;;
4047;SDS011;2038;51.728;6.674;2022-08-30T03:12:32;11.77;;;7.33;;
4047;SDS011;2038;51.728;6.674;2022-08-30T03:14:58;10.03;;;7.80;;
4047;SDS011;2038;51.728;6.674;2022-08-30T03:17:24;9.50;;;8.53;;
4047;SDS011;2038;51.728;6.674;2022-08-30T03:19:51;9.00;;;6.70;;
4047;SDS011;2038;51.728;6.674;2022-08-30T03:22:18;8.67;;;7.60;;
4047;SDS011;2038;51.728;6.674;2022-08-30T03:24:44;10.03;;;8.47;;
4047;SDS011;2038;51.728;6.674;2022-08-30T03:27:11;7.73;;;7.03;;
4047;SDS011;2038;51.728;6.674;2022-08-30T03:29:37;7.27;;;6.57;;
4047;SDS011;2038;51.728;6.674;2022-08-30T03:32:03;8.40;;;7.33;;
4047;SDS011;2038;51.728;6.674;2022-08-30T03:34:30;9.30;;;7.60;;
4047;SDS011;2038;51.728;6.674;2022-08-30T03:36:56;9.90;;;8.87;;
4047;SDS011;2038;51.728;6.674;2022-08-30T03:39:25;8.03;;;7.33;;
4047;SDS011;2038;51.728;6.674;2022-08-30T03:41:52;9.30;;;8.13;;
4047;SDS011;2038;51.728;6.674;2022-08-30T03:44:19;7.60;;;6.83;;
4047;SDS011;2038;51.728;6.674;2022-08-30T03:46:46;8.57;;;7.77;;
4047;SDS011;2038;51.728;6.674;2022-08-30T03:49:13;10.27;;;7.87;;
4047;SDS011;2038;51.728;6.674;2022-08-30T03:51:40;10.83;;;8.30;;
4047;SDS011;2038;51.728;6.674;2022-08-30T03:54:06;7.97;;;7.17;;
4047;SDS011;2038;51.728;6.674;2022-08-30T03:56:33;8.37;;;7.43;;
4047;SDS011;2038;51.728;6.674;2022-08-30T03:59:00;12.40;;;8.77;;
4047;SDS011;2038;51.728;6.674;2022-08-30T04:01:27;8.37;;;7.57;;
4047;SDS011;2038;51.728;6.674;2022-08-30T04:03:53;9.07;;;7.80;;
4047;SDS011;2038;51.728;6.674;2022-08-30T04:06:20;9.63;;;8.63;;
4047;SDS011;2038;51.728;6.674;2022-08-30T04:08:47;11.27;;;8.17;;
4047;SDS011;2038;51.728;6.674;2022-08-30T04:11:14;9.47;;;8.57;;
4047;SDS011;2038;51.728;6.674;2022-08-30T04:13:41;9.77;;;8.53;;
4047;SDS011;2038;51.728;6.674;2022-08-30T04:16:08;10.40;;;8.27;;
4047;SDS011;2038;51.728;6.674;2022-08-30T04:18:35;9.73;;;7.87;;
4047;SDS011;2038;51.728;6.674;2022-08-30T04:21:02;8.90;;;8.00;;
4047;SDS011;2038;51.728;6.674;2022-08-30T04:23:28;9.83;;;7.30;;
4047;SDS011;2038;51.728;6.674;2022-08-30T04:25:54;9.70;;;8.70;;
4047;SDS011;2038;51.728;6.674;2022-08-30T04:28:22;11.13;;;8.33;;
4047;SDS011;2038;51.728;6.674;2022-08-30T04:30:49;12.90;;;8.47;;
4047;SDS011;2038;51.728;6.674;2022-08-30T04:33:15;12.43;;;8.70;;
4047;SDS011;2038;51.728;6.674;2022-08-30T04:35:45;8.47;;;7.57;;
4047;SDS011;2038;51.728;6.674;2022-08-30T04:38:14;9.43;;;8.43;;
4047;SDS011;2038;51.728;6.674;2022-08-30T04:40:42;14.90;;;9.90;;
4047;SDS011;2038;51.728;6.674;2022-08-30T04:43:12;9.40;;;8.53;;
4047;SDS011;2038;51.728;6.674;2022-08-30T04:45:40;10.70;;;9.60;;
4047;SDS011;2038;51.728;6.674;2022-08-30T04:48:07;16.10;;;8.90;;
4047;SDS011;2038;51.728;6.674;2022-08-30T04:50:34;10.30;;;8.30;;
4047;SDS011;2038;51.728;6.674;2022-08-30T04:53:00;10.57;;;9.57;;
4047;SDS011;2038;51.728;6.674;2022-08-30T04:55:26;13.17;;;10.50;;
4047;SDS011;2038;51.728;6.674;2022-08-30T04:57:52;12.30;;;10.27;;
4047;SDS011;2038;51.728;6.674;2022-08-30T05:00:19;10.07;;;9.07;;
4047;SDS011;2038;51.728;6.674;2022-08-30T05:02:45;14.50;;;9.23;;
4047;SDS011;2038;51.728;6.674;2022-08-30T05:05:12;12.20;;;10.13;;
4047;SDS011;2038;51.728;6.674;2022-08-30T05:07:57;11.20;;;10.10;;
4047;SDS011;2038;51.728;6.674;2022-08-30T05:10:24;10.50;;;8.73;;
4047;SDS011;2038;51.728;6.674;2022-08-30T05:12:51;10.33;;;9.30;;
4047;SDS011;2038;51.728;6.674;2022-08-30T05:15:18;15.40;;;9.70;;
4047;SDS011;2038;51.728;6.674;2022-08-30T05:17:46;12.30;;;9.53;;
4047;SDS011;2038;51.728;6.674;2022-08-30T05:20:12;11.60;;;10.00;;
4047;SDS011;2038;51.728;6.674;2022-08-30T05:22:40;16.17;;;11.63;;
4047;SDS011;2038;51.728;6.674;2022-08-30T05:25:24;10.63;;;8.80;;
4047;SDS011;2038;51.728;6.674;2022-08-30T05:27:54;10.67;;;9.60;;
4047;SDS011;2038;51.728;6.674;2022-08-30T05:30:21;12.50;;;11.20;;
4047;SDS011;2038;51.728;6.674;2022-08-30T05:32:49;10.27;;;9.13;;
4047;SDS011;2038;51.728;6.674;2022-08-30T05:35:16;9.73;;;8.00;;
4047;SDS011;2038;51.728;6.674;2022-08-30T05:37:44;10.50;;;9.60;;
4047;SDS011;2038;51.728;6.674;2022-08-30T05:40:11;15.13;;;9.47;;
4047;SDS011;2038;51.728;6.674;2022-08-30T05:42:42;11.27;;;10.13;;
4047;SDS011;2038;51.728;6.674;2022-08-30T05:45:10;12.80;;;9.30;;
4047;SDS011;2038;51.728;6.674;2022-08-30T05:47:38;13.00;;;8.37;;
4047;SDS011;2038;51.728;6.674;2022-08-30T05:50:05;13.20;;;10.17;;
4047;SDS011;2038;51.728;6.674;2022-08-30T05:52:37;11.63;;;8.47;;
4047;SDS011;2038;51.728;6.674;2022-08-30T05:55:05;8.23;;;7.40;;
4047;SDS011;2038;51.728;6.674;2022-08-30T05:57:34;8.70;;;7.60;;
4047;SDS011;2038;51.728;6.674;2022-08-30T06:00:10;16.90;;;7.80;;
4047;SDS011;2038;51.728;6.674;2022-08-30T06:02:41;12.07;;;7.90;;
4047;SDS011;2038;51.728;6.674;2022-08-30T06:05:08;14.23;;;7.90;;
4047;SDS011;2038;51.728;6.674;2022-08-30T06:07:36;13.03;;;8.27;;
4047;SDS011;2038;51.728;6.674;2022-08-30T06:10:03;13.07;;;8.40;;
4047;SDS011;2038;51.728;6.674;2022-08-30T06:12:30;9.37;;;8.47;;
4047;SDS011;2038;51.728;6.674;2022-08-30T06:14:56;8.57;;;7.87;;
4047;SDS011;2038;51.728;6.674;2022-08-30T06:17:23;8.77;;;7.33;;
4047;SDS011;2038;51.728;6.674;2022-08-30T06:19:50;11.60;;;7.83;;
4047;SDS011;2038;51.728;6.674;2022-08-30T06:22:16;9.80;;;8.37;;
4047;SDS011;2038;51.728;6.674;2022-08-30T06:24:43;12.13;;;7.60;;
4047;SDS011;2038;51.728;6.674;2022-08-30T06:27:09;11.77;;;8.20;;
4047;SDS011;2038;51.728;6.674;2022-08-30T06:29:35;6.87;;;6.17;;
4047;SDS011;2038;51.728;6.674;2022-08-30T06:32:01;10.80;;;7.30;;
4047;SDS011;2038;51.728;6.674;2022-08-30T06:34:28;11.63;;;6.63;;
4047;SDS011;2038;51.728;6.674;2022-08-30T06:36:54;10.47;;;7.50;;
4047;SDS011;2038;51.728;6.674;2022-08-30T06:39:20;7.93;;;7.17;;
4047;SDS011;2038;51.728;6.674;2022-08-30T06:41:47;8.20;;;6.30;;
4047;SDS011;2038;51.728;6.674;2022-08-30T06:44:14;11.70;;;6.03;;
4047;SDS011;2038;51.728;6.674;2022-08-30T06:46:40;6.47;;;5.87;;
4047;SDS011;2038;51.728;6.674;2022-08-30T06:49:06;6.50;;;5.80;;
4047;SDS011;2038;51.728;6.674;2022-08-30T06:51:35;5.93;;;5.33;;
4047;SDS011;2038;51.728;6.674;2022-08-30T06:54:04;6.10;;;5.60;;
4047;SDS011;2038;51.728;6.674;2022-08-30T06:56:32;8.67;;;5.20;;
4047;SDS011;2038;51.728;6.674;2022-08-30T06:58:59;4.93;;;4.30;;
4047;SDS011;2038;51.728;6.674;2022-08-30T07:01:26;7.30;;;5.40;;
4047;SDS011;2038;51.728;6.674;2022-08-30T07:03:54;5.30;;;4.80;;
4047;SDS011;2038;51.728;6.674;2022-08-30T07:06:22;4.97;;;4.33;;
4047;SDS011;2038;51.728;6.674;2022-08-30T07:08:50;5.73;;;4.47;;
4047;SDS011;2038;51.728;6.674;2022-08-30T07:11:27;8.00;;;4.40;;
4047;SDS011;2038;51.728;6.674;2022-08-30T07:13:59;8.03;;;3.60;;
4047;SDS011;2038;51.728;6.674;2022-08-30T07:16:27;9.77;;;3.57;;
4047;SDS011;2038;51.728;6.674;2022-08-30T07:18:54;4.17;;;3.47;;
4047;SDS011;2038;51.728;6.674;2022-08-30T07:23:56;4.43;;;3.60;;
4047;SDS011;2038;51.728;6.674;2022-08-30T07:26:35;3.80;;;3.13;;
4047;SDS011;2038;51.728;6.674;2022-08-30T07:29:08;4.03;;;3.70;;
4047;SDS011;2038;51.728;6.674;2022-08-30T07:31:35;4.67;;;2.87;;
4047;SDS011;2038;51.728;6.674;2022-08-30T07:34:03;5.40;;;3.43;;
4047;SDS011;2038;51.728;6.674;2022-08-30T07:36:31;4.93;;;2.80;;
4047;SDS011;2038;51.728;6.674;2022-08-30T07:39:00;4.47;;;2.40;;
4047;SDS011;2038;51.728;6.674;2022-08-30T07:41:30;6.70;;;2.90;;
4047;SDS011;2038;51.728;6.674;2022-08-30T07:44:02;7.30;;;3.13;;
4047;SDS011;2038;51.728;6.674;2022-08-30T07:46:30;7.80;;;2.60;;
4047;SDS011;2038;51.728;6.674;2022-08-30T07:48:58;3.77;;;3.23;;
4047;SDS011;2038;51.728;6.674;2022-08-30T07:51:26;4.20;;;2.90;;
4047;SDS011;2038;51.728;6.674;2022-08-30T07:53:53;5.80;;;2.40;;
4047;SDS011;2038;51.728;6.674;2022-08-30T07:56:20;3.80;;;2.20;;
4047;SDS011;2038;51.728;6.674;2022-08-30T07:58:48;8.13;;;2.87;;
4047;SDS011;2038;51.728;6.674;2022-08-30T08:01:15;3.00;;;1.80;;
4047;SDS011;2038;51.728;6.674;2022-08-30T08:03:43;3.30;;;2.00;;
4047;SDS011;2038;51.728;6.674;2022-08-30T08:06:12;3.13;;;2.30;;
4047;SDS011;2038;51.728;6.674;2022-08-30T08:08:40;3.73;;;1.67;;
4047;SDS011;2038;51.728;6.674;2022-08-30T08:11:14;1.70;;;1.40;;
4047;SDS011;2038;51.728;6.674;2022-08-30T08:13:49;2.50;;;1.43;;
4047;SDS011;2038;51.728;6.674;2022-08-30T08:16:17;5.17;;;1.87;;
4047;SDS011;2038;51.728;6.674;2022-08-30T08:18:45;3.60;;;2.30;;
4047;SDS011;2038;51.728;6.674;2022-08-30T08:21:12;6.70;;;1.97;;
4047;SDS011;2038;51.728;6.674;2022-08-30T08:23:38;4.93;;;1.50;;
4047;SDS011;2038;51.728;6.674;2022-08-30T08:26:04;10.83;;;2.20;;
4047;SDS011;2038;51.728;6.674;2022-08-30T08:28:31;4.47;;;1.70;;
4047;SDS011;2038;51.728;6.674;2022-08-30T08:30:57;11.23;;;2.33;;
4047;SDS011;2038;51.728;6.674;2022-08-30T08:33:24;8.30;;;1.67;;
4047;SDS011;2038;51.728;6.674;2022-08-30T08:35:50;3.30;;;1.53;;
4047;SDS011;2038;51.728;6.674;2022-08-30T08:38:16;7.47;;;1.53;;
4047;SDS011;2038;51.728;6.674;2022-08-30T08:41:00;8.83;;;1.63;;
4047;SDS011;2038;51.728;6.674;2022-08-30T08:43:51;2.70;;;1.70;;
4047;SDS011;2038;51.728;6.674;2022-08-30T08:46:29;5.53;;;2.07;;
4047;SDS011;2038;51.728;6.674;2022-08-30T08:49:38;8.47;;;1.80;;
4047;SDS011;2038;51.728;6.674;2022-08-30T08:52:11;2.80;;;1.90;;
4047;SDS011;2038;51.728;6.674;2022-08-30T08:55:14;3.87;;;1.80;;
4047;SDS011;2038;51.728;6.674;2022-08-30T08:57:44;2.57;;;1.67;;
4047;SDS011;2038;51.728;6.674;2022-08-30T09:00:12;6.10;;;1.90;;
4047;SDS011;2038;51.728;6.674;2022-08-30T09:02:46;1.90;;;1.17;;
4047;SDS011;2038;51.728;6.674;2022-08-30T09:05:22;5.00;;;1.73;;
4047;SDS011;2038;51.728;6.674;2022-08-30T09:07:57;8.13;;;1.93;;
4047;SDS011;2038;51.728;6.674;2022-08-30T09:10:30;2.53;;;1.80;;
4047;SDS011;2038;51.728;6.674;2022-08-30T09:12:58;2.50;;;1.87;;
4047;SDS011;2038;51.728;6.674;2022-08-30T09:15:29;2.80;;;1.77;;
4047;SDS011;2038;51.728;6.674;2022-08-30T09:17:59;3.47;;;2.00;;
4047;SDS011;2038;51.728;6.674;2022-08-30T09:20:34;12.07;;;2.03;;
4047;SDS011;2038;51.728;6.674;2022-08-30T09:23:19;6.63;;;2.30;;
4047;SDS011;2038;51.728;6.674;2022-08-30T09:25:52;3.03;;;1.70;;
4047;SDS011;2038;51.728;6.674;2022-08-30T09:28:42;3.13;;;1.53;;
4047;SDS011;2038;51.728;6.674;2022-08-30T09:31:28;4.43;;;1.97;;
4047;SDS011;2038;51.728;6.674;2022-08-30T09:34:01;2.83;;;1.73;;
4047;SDS011;2038;51.728;6.674;2022-08-30T09:36:45;3.67;;;1.90;;
4047;SDS011;2038;51.728;6.674;2022-08-30T09:41:49;4.93;;;1.90;;
4047;SDS011;2038;51.728;6.674;2022-08-30T09:44:21;3.43;;;2.20;;
4047;SDS011;2038;51.728;6.674;2022-08-30T09:46:53;10.00;;;1.50;;
4047;SDS011;2038;51.728;6.674;2022-08-30T09:58:29;2.60;;;1.90;;
4047;SDS011;2038;51.728;6.674;2022-08-30T10:09:42;2.20;;;1.30;;
4047;SDS011;2038;51.728;6.674;2022-08-30T10:17:55;3.87;;;1.73;;
4047;SDS011;2038;51.728;6.674;2022-08-30T10:26:35;3.50;;;1.67;;
4047;SDS011;2038;51.728;6.674;2022-08-30T10:29:22;3.70;;;2.33;;
4047;SDS011;2038;51.728;6.674;2022-08-30T10:32:00;3.97;;;1.70;;
4047;SDS011;2038;51.728;6.674;2022-08-30T10:34:47;8.50;;;2.40;;
4047;SDS011;2038;51.728;6.674;2022-08-30T10:37:46;8.70;;;2.07;;
4047;SDS011;2038;51.728;6.674;2022-08-30T10:40:33;3.00;;;1.67;;
4047;SDS011;2038;51.728;6.674;2022-08-30T10:43:35;3.17;;;1.37;;
4047;SDS011;2038;51.728;6.674;2022-08-30T10:46:28;5.87;;;2.03;;
4047;SDS011;2038;51.728;6.674;2022-08-30T10:49:17;5.13;;;2.03;;
4047;SDS011;2038;51.728;6.674;2022-08-30T10:57:49;4.80;;;1.90;;
4047;SDS011;2038;51.728;6.674;2022-08-30T11:00:25;2.30;;;1.90;;
4047;SDS011;2038;51.728;6.674;2022-08-30T11:11:03;5.97;;;2.13;;
4047;SDS011;2038;51.728;6.674;2022-08-30T11:14:00;8.97;;;1.50;;
4047;SDS011;2038;51.728;6.674;2022-08-30T11:16:36;6.33;;;1.77;;
4047;SDS011;2038;51.728;6.674;2022-08-30T11:19:18;4.17;;;2.13;;
4047;SDS011;2038;51.728;6.674;2022-08-30T11:21:50;3.07;;;1.63;;
4047;SDS011;2038;51.728;6.674;2022-08-30T11:24:32;5.97;;;1.90;;
4047;SDS011;2038;51.728;6.674;2022-08-30T11:35:43;3.17;;;1.73;;
4047;SDS011;2038;51.728;6.674;2022-08-30T11:38:19;1.80;;;1.60;;
4047;SDS011;2038;51.728;6.674;2022-08-30T12:02:56;5.10;;;1.93;;
4047;SDS011;2038;51.728;6.674;2022-08-30T12:08:08;8.43;;;2.20;;
4047;SDS011;2038;51.728;6.674;2022-08-30T12:10:48;4.87;;;2.53;;
4047;SDS011;2038;51.728;6.674;2022-08-30T12:16:06;3.80;;;1.60;;
4047;SDS011;2038;51.728;6.674;2022-08-30T12:19:18;4.97;;;1.90;;
4047;SDS011;2038;51.728;6.674;2022-08-30T12:21:42;4.27;;;1.87;;
4047;SDS011;2038;51.728;6.674;2022-08-30T12:24:28;2.33;;;1.90;;
4047;SDS011;2038;51.728;6.674;2022-08-30T12:27:19;4.30;;;1.90;;
4047;SDS011;2038;51.728;6.674;2022-08-30T12:29:55;3.43;;;1.80;;
4047;SDS011;2038;51.728;6.674;2022-08-30T12:32:26;6.20;;;1.70;;
4047;SDS011;2038;51.728;6.674;2022-08-30T12:34:55;9.40;;;2.00;;
4047;SDS011;2038;51.728;6.674;2022-08-30T12:37:35;4.53;;;2.07;;
4047;SDS011;2038;51.728;6.674;2022-08-30T12:40:07;2.40;;;2.03;;
4047;SDS011;2038;51.728;6.674;2022-08-30T12:42:39;4.43;;;1.43;;
4047;SDS011;2038;51.728;6.674;2022-08-30T12:45:16;9.63;;;1.90;;
4047;SDS011;2038;51.728;6.674;2022-08-30T12:50:36;5.80;;;3.00;;
4047;SDS011;2038;51.728;6.674;2022-08-30T12:53:21;2.83;;;1.47;;
4047;SDS011;2038;51.728;6.674;2022-08-30T12:58:42;3.13;;;1.77;;
4047;SDS011;2038;51.728;6.674;2022-08-30T13:01:31;8.00;;;2.73;;
4047;SDS011;2038;51.728;6.674;2022-08-30T13:06:52;2.53;;;1.43;;
4047;SDS011;2038;51.728;6.674;2022-08-30T13:09:38;4.70;;;1.50;;
4047;SDS011;2038;51.728;6.674;2022-08-30T13:12:29;4.87;;;1.83;;
4047;SDS011;2038;51.728;6.674;2022-08-30T13:15:11;4.13;;;1.87;;
4047;SDS011;2038;51.728;6.674;2022-08-30T13:18:09;2.47;;;1.40;;
4047;SDS011;2038;51.728;6.674;2022-08-30T13:20:43;3.97;;;1.50;;
4047;SDS011;2038;51.728;6.674;2022-08-30T13:23:11;4.90;;;1.67;;
4047;SDS011;2038;51.728;6.674;2022-08-30T13:25:47;2.43;;;1.40;;
4047;SDS011;2038;51.728;6.674;2022-08-30T13:28:14;10.97;;;2.13;;
4047;SDS011;2038;51.728;6.674;2022-08-30T13:30:40;3.23;;;1.50;;
4047;SDS011;2038;51.728;6.674;2022-08-30T13:33:07;4.10;;;2.00;;
4047;SDS011;2038;51.728;6.674;2022-08-30T13:35:35;3.00;;;1.60;;
4047;SDS011;2038;51.728;6.674;2022-08-30T13:38:01;6.50;;;1.90;;
4047;SDS011;2038;51.728;6.674;2022-08-30T13:40:28;5.60;;;2.03;;
4047;SDS011;2038;51.728;6.674;2022-08-30T13:42:54;5.70;;;2.00;;
4047;SDS011;2038;51.728;6.674;2022-08-30T13:45:20;2.70;;;1.67;;
4047;SDS011;2038;51.728;6.674;2022-08-30T13:47:47;5.73;;;2.17;;
4047;SDS011;2038;51.728;6.674;2022-08-30T13:50:14;2.60;;;1.77;;
4047;SDS011;2038;51.728;6.674;2022-08-30T13:52:40;7.40;;;1.57;;
4047;SDS011;2038;51.728;6.674;2022-08-30T13:55:07;4.73;;;1.80;;
4047;SDS011;2038;51.728;6.674;2022-08-30T13:57:34;3.47;;;1.90;;
4047;SDS011;2038;51.728;6.674;2022-08-30T14:00:01;2.60;;;1.70;;
4047;SDS011;2038;51.728;6.674;2022-08-30T14:02:30;6.10;;;1.57;;
4047;SDS011;2038;51.728;6.674;2022-08-30T14:04:57;4.20;;;1.80;;
4047;SDS011;2038;51.728;6.674;2022-08-30T14:07:23;10.93;;;2.07;;
4047;SDS011;2038;51.728;6.674;2022-08-30T14:09:49;5.47;;;2.00;;
4047;SDS011;2038;51.728;6.674;2022-08-30T14:12:16;1.63;;;1.30;;
4047;SDS011;2038;51.728;6.674;2022-08-30T14:14:42;5.13;;;2.00;;
4047;SDS011;2038;51.728;6.674;2022-08-30T14:17:08;7.30;;;1.50;;
4047;SDS011;2038;51.728;6.674;2022-08-30T14:19:35;3.03;;;1.70;;
4047;SDS011;2038;51.728;6.674;2022-08-30T14:22:01;6.23;;;2.17;;
4047;SDS011;2038;51.728;6.674;2022-08-30T14:24:27;92.50;;;7.00;;
4047;SDS011;2038;51.728;6.674;2022-08-30T14:26:54;4.37;;;2.00;;
4047;SDS011;2038;51.728;6.674;2022-08-30T14:29:21;5.60;;;2.27;;
4047;SDS011;2038;51.728;6.674;2022-08-30T14:31:50;4.93;;;1.70;;
4047;SDS011;2038;51.728;6.674;2022-08-30T14:34:16;7.13;;;2.33;;
4047;SDS011;2038;51.728;6.674;2022-08-30T14:36:43;3.00;;;1.80;;
4047;SDS011;2038;51.728;6.674;2022-08-30T14:39:13;3.40;;;2.27;;
4047;SDS011;2038;51.728;6.674;2022-08-30T14:41:44;2.27;;;2.07;;
4047;SDS011;2038;51.728;6.674;2022-08-30T14:44:15;6.57;;;2.00;;
4047;SDS011;2038;51.728;6.674;2022-08-30T14:46:43;2.90;;;1.83;;
4047;SDS011;2038;51.728;6.674;2022-08-30T14:49:11;9.43;;;2.17;;
4047;SDS011;2038;51.728;6.674;2022-08-30T14:51:39;6.83;;;1.87;;
4047;SDS011;2038;51.728;6.674;2022-08-30T14:54:07;3.40;;;1.80;;
4047;SDS011;2038;51.728;6.674;2022-08-30T14:56:35;24.43;;;3.90;;
4047;SDS011;2038;51.728;6.674;2022-08-30T14:59:03;4.37;;;2.00;;
4047;SDS011;2038;51.728;6.674;2022-08-30T15:01:29;9.00;;;2.03;;
4047;SDS011;2038;51.728;6.674;2022-08-30T15:03:57;6.90;;;1.83;;
4047;SDS011;2038;51.728;6.674;2022-08-30T15:06:24;12.17;;;2.17;;
4047;SDS011;2038;51.728;6.674;2022-08-30T15:08:51;4.10;;;1.60;;
4047;SDS011;2038;51.728;6.674;2022-08-30T15:11:19;6.97;;;2.33;;
4047;SDS011;2038;51.728;6.674;2022-08-30T15:13:47;3.27;;;2.03;;
4047;SDS011;2038;51.728;6.674;2022-08-30T15:18:52;1.77;;;1.40;;
4047;SDS011;2038;51.728;6.674;2022-08-30T15:21:24;2.20;;;1.43;;
4047;SDS011;2038;51.728;6.674;2022-08-30T15:24:01;6.30;;;1.83;;
4047;SDS011;2038;51.728;6.674;2022-08-30T15:26:30;4.10;;;2.07;;
4047;SDS011;2038;51.728;6.674;2022-08-30T15:28:56;2.00;;;1.80;;
4047;SDS011;2038;51.728;6.674;2022-08-30T15:31:23;7.50;;;1.70;;
4047;SDS011;2038;51.728;6.674;2022-08-30T15:33:56;3.20;;;2.40;;
4047;SDS011;2038;51.728;6.674;2022-08-30T15:36:23;2.63;;;1.40;;
4047;SDS011;2038;51.728;6.674;2022-08-30T15:38:53;2.53;;;2.30;;
4047;SDS011;2038;51.728;6.674;2022-08-30T15:41:20;6.30;;;2.00;;
4047;SDS011;2038;51.728;6.674;2022-08-30T15:43:47;8.63;;;2.17;;
4047;SDS011;2038;51.728;6.674;2022-08-30T15:46:21;3.83;;;2.00;;
4047;SDS011;2038;51.728;6.674;2022-08-30T15:48:58;10.47;;;2.00;;
4047;SDS011;2038;51.728;6.674;2022-08-30T15:51:39;2.57;;;1.40;;
4047;SDS011;2038;51.728;6.674;2022-08-30T15:54:15;3.10;;;1.83;;
4047;SDS011;2038;51.728;6.674;2022-08-30T15:56:44;8.50;;;2.07;;
4047;SDS011;2038;51.728;6.674;2022-08-30T15:59:11;3.20;;;1.80;;
4047;SDS011;2038;51.728;6.674;2022-08-30T16:01:39;3.33;;;1.63;;
4047;SDS011;2038;51.728;6.674;2022-08-30T16:04:07;2.80;;;1.80;;
4047;SDS011;2038;51.728;6.674;2022-08-30T16:06:34;3.93;;;1.83;;
4047;SDS011;2038;51.728;6.674;2022-08-30T16:09:03;3.97;;;1.83;;
4047;SDS011;2038;51.728;6.674;2022-08-30T16:11:32;3.63;;;2.43;;
4047;SDS011;2038;51.728;6.674;2022-08-30T16:13:58;3.40;;;1.60;;
4047;SDS011;2038;51.728;6.674;2022-08-30T16:16:26;4.87;;;2.20;;
4047;SDS011;2038;51.728;6.674;2022-08-30T16:18:54;3.03;;;1.70;;
4047;SDS011;2038;51.728;6.674;2022-08-30T16:21:22;3.43;;;1.80;;
4047;SDS011;2038;51.728;6.674;2022-08-30T16:23:55;5.33;;;1.63;;
4047;SDS011;2038;51.728;6.674;2022-08-30T16:26:25;2.90;;;1.50;;
4047;SDS011;2038;51.728;6.674;2022-08-30T16:28:54;2.63;;;1.50;;
4047;SDS011;2038;51.728;6.674;2022-08-30T16:31:21;6.20;;;2.13;;
4047;SDS011;2038;51.728;6.674;2022-08-30T16:33:49;2.27;;;1.83;;
4047;SDS011;2038;51.728;6.674;2022-08-30T16:36:16;4.50;;;1.87;;
4047;SDS011;2038;51.728;6.674;2022-08-30T16:38:43;2.27;;;1.80;;
4047;SDS011;2038;51.728;6.674;2022-08-30T16:41:10;4.43;;;1.50;;
4047;SDS011;2038;51.728;6.674;2022-08-30T16:43:38;3.77;;;1.50;;
4047;SDS011;2038;51.728;6.674;2022-08-30T16:46:06;2.87;;;1.47;;
4047;SDS011;2038;51.728;6.674;2022-08-30T16:48:37;2.23;;;1.90;;
4047;SDS011;2038;51.728;6.674;2022-08-30T16:51:10;2.40;;;1.50;;
4047;SDS011;2038;51.728;6.674;2022-08-30T16:53:42;3.37;;;1.90;;
4047;SDS011;2038;51.728;6.674;2022-08-30T16:56:16;3.63;;;2.10;;
4047;SDS011;2038;51.728;6.674;2022-08-30T16:58:48;2.90;;;1.80;;
4047;SDS011;2038;51.728;6.674;2022-08-30T17:01:14;2.17;;;1.80;;
4047;SDS011;2038;51.728;6.674;2022-08-30T17:03:45;3.53;;;1.70;;
4047;SDS011;2038;51.728;6.674;2022-08-30T17:06:12;6.20;;;1.70;;
4047;SDS011;2038;51.728;6.674;2022-08-30T17:08:38;6.57;;;2.10;;
4047;SDS011;2038;51.728;6.674;2022-08-30T17:11:05;4.37;;;1.50;;
4047;SDS011;2038;51.728;6.674;2022-08-30T17:13:33;10.13;;;1.60;;